createdAt,value
2023-03-03T00:02:03.315Z,12.05
2023-03-03T00:06:11.389Z,13.18
2023-03-03T00:10:16.032Z,11.98
2023-03-03T00:18:27.417Z,11.70
2023-03-03T00:22:33.632Z,13.35
2023-03-03T00:26:41.648Z,12.90
2023-03-03T00:30:45.085Z,14.88
2023-03-03T00:34:48.652Z,13.82
2023-03-03T00:38:53.991Z,11.52
2023-03-03T00:42:58.041Z,12.98
2023-03-03T00:47:05.076Z,12.63
2023-03-03T00:51:20.891Z,11.80
2023-03-03T00:55:25.935Z,11.38
2023-03-03T00:59:29.761Z,11.73
2023-03-03T01:03:33.083Z,11.50
2023-03-03T01:07:36.684Z,11.32
2023-03-03T01:11:41.801Z,10.38
2023-03-03T01:15:48.348Z,11.32
2023-03-03T01:19:52.181Z,11.15
2023-03-03T01:23:55.757Z,11.43
2023-03-03T01:28:02.840Z,11.07
2023-03-03T01:32:06.632Z,10.75
2023-03-03T01:36:10.485Z,10.50
2023-03-03T01:40:17.611Z,10.07
2023-03-03T01:44:22.840Z,11.10
2023-03-03T01:48:30.581Z,9.68
2023-03-03T01:52:36.114Z,13.43
2023-03-03T01:56:39.348Z,10.30
2023-03-03T02:00:46.829Z,9.23
2023-03-03T02:04:51.200Z,10.02
2023-03-03T02:08:58.603Z,8.73
2023-03-03T02:13:02.384Z,9.85
2023-03-03T02:17:07.766Z,9.25
2023-03-03T02:21:13.583Z,9.23
2023-03-03T02:25:21.873Z,11.95
2023-03-03T02:29:27.033Z,9.43
2023-03-03T02:33:31.020Z,8.60
2023-03-03T02:37:34.232Z,8.57
2023-03-03T02:41:41.197Z,9.43
2023-03-03T02:45:47.231Z,7.88
2023-03-03T02:49:50.656Z,9.63
2023-03-03T02:53:54.474Z,9.10
2023-03-03T02:57:57.785Z,8.85
2023-03-03T03:02:02.396Z,9.38
2023-03-03T03:06:05.941Z,7.65
2023-03-03T03:10:10.156Z,8.20
2023-03-03T03:14:15.443Z,8.40
2023-03-03T03:18:20.763Z,8.05
2023-03-03T03:22:24.075Z,8.07
2023-03-03T03:26:27.591Z,8.02
2023-03-03T03:30:31.198Z,8.73
2023-03-03T03:34:36.225Z,7.85
2023-03-03T03:38:40.078Z,7.95
2023-03-03T03:42:43.414Z,8.48
2023-03-03T03:46:46.871Z,7.28
2023-03-03T03:50:52.129Z,7.88
2023-03-03T03:54:55.730Z,7.35
2023-03-03T03:58:58.970Z,7.90
2023-03-03T04:03:02.572Z,7.15
2023-03-03T04:07:07.378Z,8.32
2023-03-03T04:11:11.056Z,9.00
2023-03-03T04:15:15.430Z,8.55
2023-03-03T04:19:18.952Z,8.25
2023-03-03T04:23:23.802Z,7.93
2023-03-03T04:31:29.900Z,9.75
2023-03-03T04:35:35.391Z,7.65
2023-03-03T04:39:40.471Z,8.40
2023-03-03T04:43:43.677Z,8.88
2023-03-03T04:47:46.939Z,8.10
2023-03-03T04:51:50.526Z,7.85
2023-03-03T04:55:55.216Z,7.97
2023-03-03T04:59:58.595Z,7.70
2023-03-03T05:04:02.132Z,8.73
2023-03-03T05:08:05.741Z,7.10
2023-03-03T05:12:10.899Z,8.00
2023-03-03T05:16:16.925Z,7.30
2023-03-03T05:20:20.327Z,7.72
2023-03-03T05:24:24.075Z,7.70
2023-03-03T05:28:28.838Z,7.32
2023-03-03T05:32:32.296Z,7.70
2023-03-03T05:36:35.458Z,7.63
2023-03-03T05:40:39.492Z,7.20
2023-03-03T05:44:44.391Z,8.25
2023-03-03T05:48:48.279Z,7.70
2023-03-03T05:52:51.506Z,8.23
2023-03-03T05:56:54.913Z,7.80
2023-03-03T06:00:59.375Z,8.25
2023-03-03T06:05:02.928Z,8.25
2023-03-03T06:09:06.398Z,9.20
2023-03-03T06:13:09.983Z,9.38
2023-03-03T06:17:14.377Z,11.45
2023-03-03T06:21:17.156Z,10.82
2023-03-03T06:25:19.937Z,10.35
2023-03-03T06:29:22.775Z,9.25
2023-03-03T06:33:27.080Z,8.98
2023-03-03T06:37:29.864Z,9.38
2023-03-03T06:41:32.563Z,9.60
2023-03-03T06:45:35.489Z,10.27
2023-03-03T06:49:39.922Z,9.90
2023-03-03T06:53:42.627Z,10.98
2023-03-03T06:57:45.460Z,11.65
2023-03-03T07:01:49.839Z,13.77
2023-03-03T07:05:54.081Z,12.23
2023-03-03T07:09:57.932Z,10.95
2023-03-03T07:14:00.675Z,17.17
2023-03-03T07:18:04.645Z,12.82
2023-03-03T07:22:15.924Z,19.52
2023-03-03T07:26:20.844Z,19.63
2023-03-03T07:30:28.431Z,18.20
2023-03-03T07:34:38.188Z,18.60
2023-03-03T07:38:44.192Z,16.33
2023-03-03T07:42:47.051Z,21.08
2023-03-03T07:46:50.617Z,19.33
2023-03-03T07:50:53.667Z,21.63
2023-03-03T07:55:00.474Z,20.65
2023-03-03T07:59:04.858Z,21.33
2023-03-03T08:03:13.784Z,17.73
2023-03-03T08:07:18.835Z,17.90
2023-03-03T08:11:23.221Z,18.58
2023-03-03T08:15:27.910Z,21.00
2023-03-03T08:19:32.128Z,18.80
2023-03-03T08:23:34.874Z,19.55
2023-03-03T08:27:39.254Z,16.88
2023-03-03T08:31:42.367Z,14.07
2023-03-03T08:35:45.481Z,15.10
2023-03-03T08:39:48.314Z,13.70
2023-03-03T08:43:52.524Z,10.95
2023-03-03T08:47:56.184Z,11.90
2023-03-03T08:52:00.821Z,12.05
2023-03-03T08:56:03.810Z,12.15
2023-03-03T09:00:10.576Z,11.25
2023-03-03T09:04:13.554Z,10.60
2023-03-03T09:08:17.026Z,10.73
2023-03-03T09:12:21.899Z,11.07
2023-03-03T09:16:29.575Z,11.18
2023-03-03T09:20:36.157Z,10.93
2023-03-03T09:24:39.520Z,10.68
2023-03-03T09:28:48.154Z,11.00
2023-03-03T09:32:55.766Z,11.52
2023-03-03T09:37:00.275Z,11.90
2023-03-03T09:41:36.036Z,11.48
2023-03-03T09:45:53.506Z,9.02
2023-03-03T09:50:06.209Z,10.48
2023-03-03T09:54:28.726Z,10.70
2023-03-03T10:03:19.718Z,10.68
2023-03-03T10:07:37.990Z,10.50
2023-03-03T10:11:48.699Z,10.65
2023-03-03T10:16:00.873Z,10.13
2023-03-03T10:20:19.616Z,9.60
2023-03-03T10:24:33.507Z,10.43
2023-03-03T10:28:57.600Z,10.15
2023-03-03T10:33:03.713Z,11.63
2023-03-03T10:37:13.851Z,9.98
2023-03-03T10:41:28.444Z,10.82
2023-03-03T10:45:49.415Z,10.20
2023-03-03T10:49:57.938Z,11.38
2023-03-03T10:54:11.367Z,10.95
2023-03-03T10:58:48.776Z,10.80
2023-03-03T11:03:18.750Z,11.02
2023-03-03T11:07:25.834Z,11.32
2023-03-03T11:11:36.742Z,10.23
2023-03-03T11:16:03.442Z,10.68
2023-03-03T11:20:13.725Z,12.35
2023-03-03T11:24:43.517Z,11.23
2023-03-03T11:28:58.567Z,11.43
2023-03-03T11:33:06.078Z,10.40
2023-03-03T11:37:12.898Z,9.50
2023-03-03T11:41:27.983Z,10.32
2023-03-03T11:45:38.232Z,9.35
2023-03-03T11:49:52.812Z,10.02
2023-03-03T11:54:00.749Z,10.85
2023-03-03T11:58:13.839Z,10.60
2023-03-03T12:02:28.706Z,10.18
2023-03-03T12:06:43.107Z,10.77
2023-03-03T12:10:51.005Z,11.07
2023-03-03T12:15:07.500Z,11.05
2023-03-03T12:19:36.079Z,9.75
2023-03-03T12:23:52.536Z,10.32
2023-03-03T12:28:01.283Z,10.10
2023-03-03T12:32:15.409Z,12.32
2023-03-03T12:36:31.968Z,9.88
2023-03-03T12:40:38.853Z,11.00
2023-03-03T12:44:47.530Z,10.20
2023-03-03T12:48:51.021Z,9.80
2023-03-03T12:53:09.934Z,10.20
2023-03-03T12:57:27.399Z,10.07
2023-03-03T13:01:39.800Z,9.13
2023-03-03T13:05:52.304Z,9.18
2023-03-03T13:10:06.227Z,9.13
2023-03-03T13:14:21.096Z,9.27
2023-03-03T13:18:36.293Z,10.20
2023-03-03T13:22:42.162Z,9.85
2023-03-03T13:26:50.980Z,10.00
2023-03-03T13:30:59.933Z,8.98
2023-03-03T13:35:08.867Z,8.65
2023-03-03T13:39:21.073Z,8.07
2023-03-03T13:43:30.909Z,8.95
2023-03-03T13:47:44.861Z,8.88
2023-03-03T13:51:59.126Z,9.07
2023-03-03T13:56:10.361Z,9.13
2023-03-03T14:00:36.843Z,8.65
2023-03-03T14:04:52.195Z,11.05
2023-03-03T14:09:12.382Z,9.15
2023-03-03T14:13:26.275Z,8.73
2023-03-03T14:17:36.525Z,9.95
2023-03-03T14:21:47.635Z,8.95
2023-03-03T14:26:11.172Z,8.02
2023-03-03T14:30:34.443Z,8.95
2023-03-03T14:34:42.445Z,8.60
2023-03-03T14:38:52.926Z,7.30
2023-03-03T14:42:58.293Z,7.50
2023-03-03T14:47:22.308Z,7.43
2023-03-03T14:51:28.041Z,8.80
2023-03-03T14:55:38.405Z,7.45
2023-03-03T14:59:42.403Z,8.90
2023-03-03T15:03:52.974Z,7.90
2023-03-03T15:07:59.169Z,8.10
2023-03-03T15:12:06.165Z,8.05
2023-03-03T15:16:17.391Z,8.40
2023-03-03T15:20:32.783Z,9.85
2023-03-03T15:24:43.189Z,9.18
2023-03-03T15:28:59.584Z,8.13
2023-03-03T15:33:09.557Z,7.88
2023-03-03T15:41:33.343Z,8.07
2023-03-03T15:45:45.009Z,8.70
2023-03-03T15:50:12.905Z,8.23
2023-03-03T15:54:33.330Z,7.80
2023-03-03T15:58:53.564Z,8.50
2023-03-03T16:03:01.182Z,6.93
2023-03-03T16:07:08.494Z,7.20
2023-03-03T16:11:15.932Z,6.38
2023-03-03T16:15:41.134Z,6.40
2023-03-03T16:19:53.342Z,6.65
2023-03-03T16:23:58.385Z,6.22
2023-03-03T16:28:07.513Z,6.80
2023-03-03T16:32:13.706Z,7.13
2023-03-03T16:36:27.881Z,7.22
2023-03-03T16:40:33.724Z,6.90
2023-03-03T16:44:41.902Z,8.13
2023-03-03T16:48:49.514Z,7.13
2023-03-03T16:52:57.002Z,7.00
2023-03-03T16:57:09.534Z,9.68
2023-03-03T17:01:18.858Z,11.20
2023-03-03T17:05:28.461Z,11.48
2023-03-03T17:09:58.979Z,11.82
2023-03-03T17:14:15.053Z,12.70
2023-03-03T17:18:25.648Z,13.18
2023-03-03T17:22:35.584Z,12.70
2023-03-03T17:26:52.061Z,13.05
2023-03-03T17:30:59.650Z,13.18
2023-03-03T17:35:22.904Z,14.13
2023-03-03T17:39:42.174Z,14.23
2023-03-03T17:43:52.818Z,13.02
2023-03-03T17:48:08.505Z,13.07
2023-03-03T17:52:27.742Z,15.20
2023-03-03T17:56:36.644Z,12.43
2023-03-03T18:00:52.006Z,13.60
2023-03-03T18:05:37.313Z,13.98
2023-03-03T18:09:54.538Z,13.50
2023-03-03T18:14:26.664Z,13.57
2023-03-03T18:18:43.192Z,14.20
2023-03-03T18:22:48.516Z,13.75
2023-03-03T18:26:52.039Z,13.75
2023-03-03T18:30:58.395Z,13.82
2023-03-03T18:35:26.506Z,14.25
2023-03-03T18:39:45.729Z,12.52
2023-03-03T18:43:56.031Z,12.75
2023-03-03T18:48:05.639Z,11.40
2023-03-03T18:52:25.802Z,12.80
2023-03-03T18:56:44.430Z,13.60
2023-03-03T19:00:49.262Z,11.25
2023-03-03T19:04:55.651Z,14.05
2023-03-03T19:09:00.770Z,13.75
2023-03-03T19:13:04.167Z,11.80
2023-03-03T19:17:40.424Z,13.73
2023-03-03T19:21:54.387Z,14.38
2023-03-03T19:26:21.956Z,13.93
2023-03-03T19:30:44.415Z,15.02
2023-03-03T19:34:50.121Z,13.77
2023-03-03T19:39:02.663Z,14.07
2023-03-03T19:43:13.677Z,15.70
2023-03-03T19:47:26.513Z,14.20
2023-03-03T19:51:35.873Z,15.75
2023-03-03T19:55:46.349Z,14.50
2023-03-03T19:59:54.232Z,15.40
2023-03-03T20:04:23.015Z,13.93
2023-03-03T20:08:30.913Z,13.65
2023-03-03T20:12:43.762Z,14.23
2023-03-03T20:16:50.428Z,13.20
2023-03-03T20:21:02.098Z,13.00
2023-03-03T20:25:14.674Z,15.27
2023-03-03T20:29:31.548Z,16.08
2023-03-03T20:37:52.221Z,15.68
2023-03-03T20:42:06.224Z,17.05
2023-03-03T20:46:14.413Z,16.73
2023-03-03T20:50:25.936Z,15.68
2023-03-03T20:54:34.694Z,11.10
2023-03-03T20:58:48.553Z,16.63
2023-03-03T21:03:00.013Z,15.80
2023-03-03T21:07:05.369Z,14.15
2023-03-03T21:11:08.983Z,16.20
2023-03-03T21:15:25.066Z,13.50
2023-03-03T21:19:30.212Z,18.80
2023-03-03T21:23:35.064Z,20.15
2023-03-03T21:27:38.596Z,18.45
2023-03-03T21:31:48.930Z,16.60
2023-03-03T21:36:02.273Z,17.40
2023-03-03T21:40:21.088Z,16.95
2023-03-03T21:44:41.463Z,18.55
2023-03-03T21:48:44.802Z,14.57
2023-03-03T21:52:48.271Z,17.10
2023-03-03T21:56:53.271Z,17.38
2023-03-03T22:00:56.734Z,15.43
2023-03-03T22:05:00.244Z,16.20
2023-03-03T22:09:03.805Z,15.93
2023-03-03T22:13:08.661Z,17.10
2023-03-03T22:17:11.943Z,18.23
2023-03-03T22:21:15.635Z,18.48
2023-03-03T22:25:19.221Z,17.00
2023-03-03T22:29:23.999Z,20.10
2023-03-03T22:33:27.620Z,13.82
2023-03-03T22:37:32.190Z,17.00
2023-03-03T22:41:35.590Z,18.50
2023-03-03T22:45:40.705Z,17.05
2023-03-03T22:49:43.896Z,23.90
2023-03-03T22:53:47.288Z,22.52
2023-03-03T22:57:50.555Z,20.88
2023-03-03T23:01:56.289Z,21.85
2023-03-03T23:05:59.672Z,21.75
2023-03-03T23:10:02.917Z,20.13
2023-03-03T23:14:06.380Z,19.60
2023-03-03T23:18:11.228Z,18.40
2023-03-03T23:22:14.686Z,15.77
2023-03-03T23:26:18.191Z,13.93
2023-03-03T23:30:22.649Z,18.48
2023-03-03T23:34:27.224Z,17.27
2023-03-03T23:38:30.462Z,16.05
2023-03-03T23:42:33.646Z,9.02
2023-03-03T23:46:38.172Z,18.88
2023-03-03T23:50:42.882Z,19.13
2023-03-03T23:58:49.419Z,21.13
